Aérodrome :
LOGIN :

S'inscrire | Disclaimer

   EN    FR    IT 

 










Légende :    VFR   VFR Marginal   IFR   IFR Intensif   IFR Très Intensif
Visi : 
Plafond : 
>= 8 km
>= 3000ft
5 à 8 km
1000 à 3000 ft
1500m à 5 km
500 à 1000 ft
800 à 1500m
200 à 500 ft
< 800m
< 200 ft
Symboles :   Orages  Brouillard  Fortes neiges  Fortes précipitations  Vent > 20 kt
SIGMETs :   Divers  Orages  Givrage  Turbulence  Onde Orograph.  Cendres Volcan.







- Altitude de l'aérodrome : 302 ft
- Code IATA : MAH


LEMH - Menorca

DERNIER METAR :
  • 202200Z 05005KT 6000 SCT006 25/23 Q1011

METARs EXPIRÉS :
  • 202130Z 03006KT 6000 SCT006 25/23 Q1011
  • 202114Z 04006KT 6000 SCT006 25/23 Q1011
  • 202100Z 04006KT 6000 BKN006 25/23 Q1011
  • 202045Z 05005KT 6000 BKN007 25/23 Q1011
  • 202030Z 05006KT 7000 SCT008 25/23 Q1011
  • 202000Z 05007KT 020V080 7000 SCT008 25/23 Q1010
  • 201930Z 05007KT 020V080 8000 SCT008 25/23 Q1010

TAF TAF LEMH
Valide du 20 à 21h jusqu'au 21 à 21h UTC


202000Z 2021/2121 VRB03KT 9999 SCT015 TX29/2112Z TN22/2105Z
PROB40
TEMPO 2021/2103 BKN008
PROB30
TEMPO 2021/2106 4000 SHRA BKN010 FEW020TCU
BECMG 2104/2106 03007KT
BECMG 2110/2112 21008KT
Pas de NOTAMs connus pour ce terrain.



MET'MAP, la Météo Aéronautique d'un coup d'oeil ! - Copyright ORBIFLY Décembre 2007 - Disclaimer

ORBIFLY MET'MAP TEAM :

Programmation & Développement : Alexandra Zaïnal
Conception & Développement : Baudouin d'Aumeries
Co-Programmation & Développement : Marc-Olivier Méhu
Soutien technique & logistique : Manuel Goepfert

Contact : metmap@orbifly.com




SOURCES & CREDITS :

   NOAA